sensor_id;sensor_type;location;lat;lon;timestamp;temperature;humidity
15821;DHT22;8011;51.650;7.240;2022-09-09T03:01:41;16.20;99.90
15821;DHT22;8011;51.650;7.240;2022-09-09T03:04:06;16.20;99.90
15821;DHT22;8011;51.650;7.240;2022-09-09T03:06:32;16.20;99.90
15821;DHT22;8011;51.650;7.240;2022-09-09T03:08:58;16.20;99.90
15821;DHT22;8011;51.650;7.240;2022-09-09T03:11:27;16.20;99.90
15821;DHT22;8011;51.650;7.240;2022-09-09T03:13:53;16.20;99.90
15821;DHT22;8011;51.650;7.240;2022-09-09T03:16:24;16.30;99.90
15821;DHT22;8011;51.650;7.240;2022-09-09T03:18:49;16.30;99.90
15821;DHT22;8011;51.650;7.240;2022-09-09T03:21:15;16.20;99.90
15821;DHT22;8011;51.650;7.240;2022-09-09T03:23:41;16.30;99.90
15821;DHT22;8011;51.650;7.240;2022-09-09T03:26:07;16.30;99.90
15821;DHT22;8011;51.650;7.240;2022-09-09T03:28:33;16.30;99.90
15821;DHT22;8011;51.650;7.240;2022-09-09T03:31:03;16.30;99.90
15821;DHT22;8011;51.650;7.240;2022-09-09T03:33:29;16.30;99.90
15821;DHT22;8011;51.650;7.240;2022-09-09T03:35:58;16.30;99.90
15821;DHT22;8011;51.650;7.240;2022-09-09T03:38:24;16.30;99.90
15821;DHT22;8011;51.650;7.240;2022-09-09T03:40:55;16.30;99.90
15821;DHT22;8011;51.650;7.240;2022-09-09T03:43:25;16.30;99.90
15821;DHT22;8011;51.650;7.240;2022-09-09T03:45:52;16.30;99.90
15821;DHT22;8011;51.650;7.240;2022-09-09T03:48:18;16.30;99.90
15821;DHT22;8011;51.650;7.240;2022-09-09T03:50:48;16.30;99.90
15821;DHT22;8011;51.650;7.240;2022-09-09T03:53:15;16.30;99.90
15821;DHT22;8011;51.650;7.240;2022-09-09T03:55:46;16.30;99.90
15821;DHT22;8011;51.650;7.240;2022-09-09T03:58:13;16.40;99.90
15821;DHT22;8011;51.650;7.240;2022-09-09T04:00:39;16.30;99.90
15821;DHT22;8011;51.650;7.240;2022-09-09T04:03:11;16.30;99.90
15821;DHT22;8011;51.650;7.240;2022-09-09T04:05:39;16.30;99.90
15821;DHT22;8011;51.650;7.240;2022-09-09T04:08:07;16.30;99.90
15821;DHT22;8011;51.650;7.240;2022-09-09T04:10:33;16.30;99.90
15821;DHT22;8011;51.650;7.240;2022-09-09T04:12:59;16.30;99.90
15821;DHT22;8011;51.650;7.240;2022-09-09T04:15:25;16.30;99.90
15821;DHT22;8011;51.650;7.240;2022-09-09T04:17:51;16.30;99.90
15821;DHT22;8011;51.650;7.240;2022-09-09T04:20:16;16.30;99.90
15821;DHT22;8011;51.650;7.240;2022-09-09T04:22:42;16.30;99.90
15821;DHT22;8011;51.650;7.240;2022-09-09T04:25:08;16.30;99.90
15821;DHT22;8011;51.650;7.240;2022-09-09T04:27:33;16.30;99.90
15821;DHT22;8011;51.650;7.240;2022-09-09T04:29:59;16.30;99.90
15821;DHT22;8011;51.650;7.240;2022-09-09T04:32:25;16.30;99.90
15821;DHT22;8011;51.650;7.240;2022-09-09T04:34:53;16.30;99.90
15821;DHT22;8011;51.650;7.240;2022-09-09T04:37:18;16.30;99.90
15821;DHT22;8011;51.650;7.240;2022-09-09T04:39:44;16.30;99.90
15821;DHT22;8011;51.650;7.240;2022-09-09T04:42:11;16.30;99.90
15821;DHT22;8011;51.650;7.240;2022-09-09T04:44:38;16.30;99.90
15821;DHT22;8011;51.650;7.240;2022-09-09T04:47:04;16.30;99.90
15821;DHT22;8011;51.650;7.240;2022-09-09T04:49:30;16.30;99.90
15821;DHT22;8011;51.650;7.240;2022-09-09T04:51:56;16.30;99.90
15821;DHT22;8011;51.650;7.240;2022-09-09T04:54:22;16.30;99.90
15821;DHT22;8011;51.650;7.240;2022-09-09T04:56:50;16.30;99.90
15821;DHT22;8011;51.650;7.240;2022-09-09T04:59:16;16.30;99.90
15821;DHT22;8011;51.650;7.240;2022-09-09T05:01:41;16.20;99.90
15821;DHT22;8011;51.650;7.240;2022-09-09T05:04:07;16.20;99.90
15821;DHT22;8011;51.650;7.240;2022-09-09T05:06:34;16.30;99.90
15821;DHT22;8011;51.650;7.240;2022-09-09T05:09:01;16.30;99.90
15821;DHT22;8011;51.650;7.240;2022-09-09T05:11:29;16.30;99.90
15821;DHT22;8011;51.650;7.240;2022-09-09T05:13:55;16.30;99.90
15821;DHT22;8011;51.650;7.240;2022-09-09T05:16:22;16.30;99.90
15821;DHT22;8011;51.650;7.240;2022-09-09T05:18:48;16.30;99.90
15821;DHT22;8011;51.650;7.240;2022-09-09T05:21:18;16.30;99.90
15821;DHT22;8011;51.650;7.240;2022-09-09T05:23:45;16.30;99.90
15821;DHT22;8011;51.650;7.240;2022-09-09T05:26:16;16.30;99.90
15821;DHT22;8011;51.650;7.240;2022-09-09T05:28:42;16.30;99.90
15821;DHT22;8011;51.650;7.240;2022-09-09T05:31:10;16.30;99.90
15821;DHT22;8011;51.650;7.240;2022-09-09T05:33:38;16.30;99.90
15821;DHT22;8011;51.650;7.240;2022-09-09T05:36:10;16.30;99.90
15821;DHT22;8011;51.650;7.240;2022-09-09T05:38:39;16.30;99.90
15821;DHT22;8011;51.650;7.240;2022-09-09T05:41:06;16.40;99.90
15821;DHT22;8011;51.650;7.240;2022-09-09T05:43:32;16.40;99.90
15821;DHT22;8011;51.650;7.240;2022-09-09T05:46:09;16.40;99.90
15821;DHT22;8011;51.650;7.240;2022-09-09T05:48:37;16.40;99.90
15821;DHT22;8011;51.650;7.240;2022-09-09T05:51:05;16.40;99.90
15821;DHT22;8011;51.650;7.240;2022-09-09T05:53:32;16.40;99.90
15821;DHT22;8011;51.650;7.240;2022-09-09T05:58:33;16.40;99.90
15821;DHT22;8011;51.650;7.240;2022-09-09T06:01:03;16.50;99.90
15821;DHT22;8011;51.650;7.240;2022-09-09T06:03:29;16.40;99.90
15821;DHT22;8011;51.650;7.240;2022-09-09T06:06:06;16.40;99.90
15821;DHT22;8011;51.650;7.240;2022-09-09T06:08:34;16.50;99.90
15821;DHT22;8011;51.650;7.240;2022-09-09T06:11:14;16.50;99.90
15821;DHT22;8011;51.650;7.240;2022-09-09T06:13:40;16.50;99.90
15821;DHT22;8011;51.650;7.240;2022-09-09T06:16:11;16.60;99.90
15821;DHT22;8011;51.650;7.240;2022-09-09T06:18:37;16.60;99.90
15821;DHT22;8011;51.650;7.240;2022-09-09T06:21:05;16.60;99.90
15821;DHT22;8011;51.650;7.240;2022-09-09T06:23:33;16.60;99.90
15821;DHT22;8011;51.650;7.240;2022-09-09T06:26:11;16.60;99.90
15821;DHT22;8011;51.650;7.240;2022-09-09T06:28:38;16.70;99.90
15821;DHT22;8011;51.650;7.240;2022-09-09T06:31:09;16.60;99.90
15821;DHT22;8011;51.650;7.240;2022-09-09T06:33:38;16.70;99.90
15821;DHT22;8011;51.650;7.240;2022-09-09T06:36:07;16.60;99.90
15821;DHT22;8011;51.650;7.240;2022-09-09T06:38:35;16.60;99.90
15821;DHT22;8011;51.650;7.240;2022-09-09T06:41:01;16.70;99.90
15821;DHT22;8011;51.650;7.240;2022-09-09T06:43:27;16.70;99.90
15821;DHT22;8011;51.650;7.240;2022-09-09T06:45:58;16.70;99.90
15821;DHT22;8011;51.650;7.240;2022-09-09T06:48:24;16.70;99.90
15821;DHT22;8011;51.650;7.240;2022-09-09T06:51:06;16.70;99.90
15821;DHT22;8011;51.650;7.240;2022-09-09T06:53:33;16.80;99.90
15821;DHT22;8011;51.650;7.240;2022-09-09T06:56:21;16.80;99.90
15821;DHT22;8011;51.650;7.240;2022-09-09T06:58:50;16.90;99.90
15821;DHT22;8011;51.650;7.240;2022-09-09T07:01:21;16.90;99.90
15821;DHT22;8011;51.650;7.240;2022-09-09T07:03:49;16.90;99.90
15821;DHT22;8011;51.650;7.240;2022-09-09T07:06:21;17.00;99.90
15821;DHT22;8011;51.650;7.240;2022-09-09T07:08:51;17.00;99.90
15821;DHT22;8011;51.650;7.240;2022-09-09T07:11:18;17.10;99.90
15821;DHT22;8011;51.650;7.240;2022-09-09T07:13:44;17.10;99.90
15821;DHT22;8011;51.650;7.240;2022-09-09T07:16:12;17.10;99.90
15821;DHT22;8011;51.650;7.240;2022-09-09T07:18:39;17.10;99.90
15821;DHT22;8011;51.650;7.240;2022-09-09T07:21:05;17.20;99.90
15821;DHT22;8011;51.650;7.240;2022-09-09T07:23:32;17.20;99.90
15821;DHT22;8011;51.650;7.240;2022-09-09T07:25:59;17.20;99.90
15821;DHT22;8011;51.650;7.240;2022-09-09T07:28:25;17.30;99.90
15821;DHT22;8011;51.650;7.240;2022-09-09T07:31:00;17.30;99.90
15821;DHT22;8011;51.650;7.240;2022-09-09T07:33:30;17.30;99.90
15821;DHT22;8011;51.650;7.240;2022-09-09T07:36:16;17.40;99.90
15821;DHT22;8011;51.650;7.240;2022-09-09T07:38:48;17.40;99.90
15821;DHT22;8011;51.650;7.240;2022-09-09T07:41:19;17.50;99.90
15821;DHT22;8011;51.650;7.240;2022-09-09T07:43:47;17.60;99.90
15821;DHT22;8011;51.650;7.240;2022-09-09T07:46:14;17.60;99.90
15821;DHT22;8011;51.650;7.240;2022-09-09T07:48:45;17.70;99.90
15821;DHT22;8011;51.650;7.240;2022-09-09T07:51:14;17.70;99.90
15821;DHT22;8011;51.650;7.240;2022-09-09T07:53:44;17.70;99.90
15821;DHT22;8011;51.650;7.240;2022-09-09T07:56:15;17.70;99.90
15821;DHT22;8011;51.650;7.240;2022-09-09T07:58:44;17.80;99.90
15821;DHT22;8011;51.650;7.240;2022-09-09T08:01:33;17.80;99.90
15821;DHT22;8011;51.650;7.240;2022-09-09T08:04:03;17.90;99.90
15821;DHT22;8011;51.650;7.240;2022-09-09T08:06:37;17.90;99.90
15821;DHT22;8011;51.650;7.240;2022-09-09T08:09:04;17.90;99.90
15821;DHT22;8011;51.650;7.240;2022-09-09T08:11:31;17.90;99.90
15821;DHT22;8011;51.650;7.240;2022-09-09T08:13:59;18.00;99.90
15821;DHT22;8011;51.650;7.240;2022-09-09T08:16:29;18.00;99.90
15821;DHT22;8011;51.650;7.240;2022-09-09T08:18:56;18.00;99.90
15821;DHT22;8011;51.650;7.240;2022-09-09T08:21:27;18.00;99.90
15821;DHT22;8011;51.650;7.240;2022-09-09T08:23:58;18.00;99.90
15821;DHT22;8011;51.650;7.240;2022-09-09T08:26:35;18.00;99.90
15821;DHT22;8011;51.650;7.240;2022-09-09T08:29:05;18.10;99.90
15821;DHT22;8011;51.650;7.240;2022-09-09T08:31:54;18.10;99.90
15821;DHT22;8011;51.650;7.240;2022-09-09T08:34:21;18.10;99.90
15821;DHT22;8011;51.650;7.240;2022-09-09T08:36:48;18.20;99.90
15821;DHT22;8011;51.650;7.240;2022-09-09T08:39:16;18.20;99.90
15821;DHT22;8011;51.650;7.240;2022-09-09T08:52:51;18.40;99.90
15821;DHT22;8011;51.650;7.240;2022-09-09T08:57:58;18.40;99.90
15821;DHT22;8011;51.650;7.240;2022-09-09T09:00:55;18.50;99.90
15821;DHT22;8011;51.650;7.240;2022-09-09T09:12:18;18.90;99.90
15821;DHT22;8011;51.650;7.240;2022-09-09T09:14:46;19.00;99.90
15821;DHT22;8011;51.650;7.240;2022-09-09T09:17:17;19.10;99.90
15821;DHT22;8011;51.650;7.240;2022-09-09T09:19:45;19.00;99.90
15821;DHT22;8011;51.650;7.240;2022-09-09T09:22:40;19.10;99.90
15821;DHT22;8011;51.650;7.240;2022-09-09T09:25:25;19.20;99.90
15821;DHT22;8011;51.650;7.240;2022-09-09T09:28:16;19.40;99.90
15821;DHT22;8011;51.650;7.240;2022-09-09T09:35:52;19.60;99.90
15821;DHT22;8011;51.650;7.240;2022-09-09T09:38:25;19.70;99.90
15821;DHT22;8011;51.650;7.240;2022-09-09T09:40:52;19.70;99.90
15821;DHT22;8011;51.650;7.240;2022-09-09T09:43:34;19.80;99.90
15821;DHT22;8011;51.650;7.240;2022-09-09T09:46:00;19.90;99.90
15821;DHT22;8011;51.650;7.240;2022-09-09T09:48:28;19.90;99.90
15821;DHT22;8011;51.650;7.240;2022-09-09T09:53:27;20.10;99.90
15821;DHT22;8011;51.650;7.240;2022-09-09T09:56:06;20.20;99.90
15821;DHT22;8011;51.650;7.240;2022-09-09T09:58:52;20.20;99.90
15821;DHT22;8011;51.650;7.240;2022-09-09T10:01:27;20.30;99.90
15821;DHT22;8011;51.650;7.240;2022-09-09T10:03:57;20.20;99.90
15821;DHT22;8011;51.650;7.240;2022-09-09T10:06:30;20.20;99.90
15821;DHT22;8011;51.650;7.240;2022-09-09T10:08:56;20.40;99.90
15821;DHT22;8011;51.650;7.240;2022-09-09T10:14:14;20.70;99.90
15821;DHT22;8011;51.650;7.240;2022-09-09T10:17:06;20.80;99.90
15821;DHT22;8011;51.650;7.240;2022-09-09T10:19:36;20.70;99.90
15821;DHT22;8011;51.650;7.240;2022-09-09T10:22:26;20.60;99.90
15821;DHT22;8011;51.650;7.240;2022-09-09T10:25:21;20.60;99.90
15821;DHT22;8011;51.650;7.240;2022-09-09T10:28:51;20.60;99.90
15821;DHT22;8011;51.650;7.240;2022-09-09T10:31:11;20.70;99.90
15821;DHT22;8011;51.650;7.240;2022-09-09T10:36:12;20.70;99.90
15821;DHT22;8011;51.650;7.240;2022-09-09T10:38:42;20.70;99.90
15821;DHT22;8011;51.650;7.240;2022-09-09T10:41:18;20.70;99.90
15821;DHT22;8011;51.650;7.240;2022-09-09T10:44:24;20.80;99.90
15821;DHT22;8011;51.650;7.240;2022-09-09T10:52:45;20.80;99.90
15821;DHT22;8011;51.650;7.240;2022-09-09T10:55:17;20.80;99.90
15821;DHT22;8011;51.650;7.240;2022-09-09T10:57:51;20.90;99.90
15821;DHT22;8011;51.650;7.240;2022-09-09T11:00:29;20.80;99.90
15821;DHT22;8011;51.650;7.240;2022-09-09T11:03:02;20.90;99.90
15821;DHT22;8011;51.650;7.240;2022-09-09T11:05:32;20.80;99.90
15821;DHT22;8011;51.650;7.240;2022-09-09T11:08:05;20.90;99.90
15821;DHT22;8011;51.650;7.240;2022-09-09T11:21:49;21.00;99.90
15821;DHT22;8011;51.650;7.240;2022-09-09T11:26:57;20.90;99.90
15821;DHT22;8011;51.650;7.240;2022-09-09T11:38:44;20.80;99.90
15821;DHT22;8011;51.650;7.240;2022-09-09T11:41:11;20.80;99.90
15821;DHT22;8011;51.650;7.240;2022-09-09T11:43:50;20.90;99.90
15821;DHT22;8011;51.650;7.240;2022-09-09T11:46:21;20.90;99.90
15821;DHT22;8011;51.650;7.240;2022-09-09T11:49:03;21.00;99.90
15821;DHT22;8011;51.650;7.240;2022-09-09T11:51:31;21.10;99.90
15821;DHT22;8011;51.650;7.240;2022-09-09T11:54:28;21.10;99.90
15821;DHT22;8011;51.650;7.240;2022-09-09T11:56:54;21.20;99.90
15821;DHT22;8011;51.650;7.240;2022-09-09T12:02:24;21.30;99.90
15821;DHT22;8011;51.650;7.240;2022-09-09T12:05:08;21.40;99.90
15821;DHT22;8011;51.650;7.240;2022-09-09T12:07:38;21.50;99.90
15821;DHT22;8011;51.650;7.240;2022-09-09T12:10:26;21.50;99.90
15821;DHT22;8011;51.650;7.240;2022-09-09T12:12:53;21.50;99.90
15821;DHT22;8011;51.650;7.240;2022-09-09T12:15:28;21.50;99.90
15821;DHT22;8011;51.650;7.240;2022-09-09T12:17:56;21.50;99.90
15821;DHT22;8011;51.650;7.240;2022-09-09T12:20:31;21.50;99.90
15821;DHT22;8011;51.650;7.240;2022-09-09T12:28:06;21.40;99.90
15821;DHT22;8011;51.650;7.240;2022-09-09T12:33:20;21.30;99.90
15821;DHT22;8011;51.650;7.240;2022-09-09T12:35:55;21.20;99.90
15821;DHT22;8011;51.650;7.240;2022-09-09T12:38:40;21.10;99.90
15821;DHT22;8011;51.650;7.240;2022-09-09T12:41:22;20.90;99.90
15821;DHT22;8011;51.650;7.240;2022-09-09T12:43:48;20.60;99.90
15821;DHT22;8011;51.650;7.240;2022-09-09T12:46:30;20.50;99.90
15821;DHT22;8011;51.650;7.240;2022-09-09T12:48:58;20.50;99.90
15821;DHT22;8011;51.650;7.240;2022-09-09T12:51:25;20.60;99.90
15821;DHT22;8011;51.650;7.240;2022-09-09T12:53:52;20.70;99.90
15821;DHT22;8011;51.650;7.240;2022-09-09T12:56:30;20.80;99.90
15821;DHT22;8011;51.650;7.240;2022-09-09T12:58:57;20.90;99.90
15821;DHT22;8011;51.650;7.240;2022-09-09T13:01:31;20.90;99.90
15821;DHT22;8011;51.650;7.240;2022-09-09T13:03:59;20.90;99.90
15821;DHT22;8011;51.650;7.240;2022-09-09T13:06:27;20.90;99.90
15821;DHT22;8011;51.650;7.240;2022-09-09T13:08:54;20.80;99.90
15821;DHT22;8011;51.650;7.240;2022-09-09T13:11:28;20.90;99.90
15821;DHT22;8011;51.650;7.240;2022-09-09T13:13:57;20.90;99.90
15821;DHT22;8011;51.650;7.240;2022-09-09T13:16:29;21.00;99.90
15821;DHT22;8011;51.650;7.240;2022-09-09T13:19:14;21.00;99.90
15821;DHT22;8011;51.650;7.240;2022-09-09T13:21:41;21.00;99.90
15821;DHT22;8011;51.650;7.240;2022-09-09T13:24:40;20.90;99.90
15821;DHT22;8011;51.650;7.240;2022-09-09T13:27:31;20.80;99.90
15821;DHT22;8011;51.650;7.240;2022-09-09T13:29:57;20.80;99.90
15821;DHT22;8011;51.650;7.240;2022-09-09T13:32:24;20.70;99.90
15821;DHT22;8011;51.650;7.240;2022-09-09T13:34:54;20.40;99.90
15821;DHT22;8011;51.650;7.240;2022-09-09T13:39:56;19.60;99.90
15821;DHT22;8011;51.650;7.240;2022-09-09T13:42:28;19.30;99.90
15821;DHT22;8011;51.650;7.240;2022-09-09T13:44:55;19.00;99.90
15821;DHT22;8011;51.650;7.240;2022-09-09T13:47:31;18.90;99.90
15821;DHT22;8011;51.650;7.240;2022-09-09T13:49:57;18.80;99.90
15821;DHT22;8011;51.650;7.240;2022-09-09T13:52:23;18.70;99.90
15821;DHT22;8011;51.650;7.240;2022-09-09T13:54:50;18.50;99.90
15821;DHT22;8011;51.650;7.240;2022-09-09T13:57:19;18.50;99.90
15821;DHT22;8011;51.650;7.240;2022-09-09T13:59:47;18.40;99.90
15821;DHT22;8011;51.650;7.240;2022-09-09T14:02:14;18.40;99.90
15821;DHT22;8011;51.650;7.240;2022-09-09T14:04:40;18.40;99.90
15821;DHT22;8011;51.650;7.240;2022-09-09T14:07:14;18.40;99.90
15821;DHT22;8011;51.650;7.240;2022-09-09T14:09:41;18.50;99.90
15821;DHT22;8011;51.650;7.240;2022-09-09T14:12:11;18.40;99.90
15821;DHT22;8011;51.650;7.240;2022-09-09T14:14:37;18.40;99.90
15821;DHT22;8011;51.650;7.240;2022-09-09T14:17:03;18.40;99.90
15821;DHT22;8011;51.650;7.240;2022-09-09T14:19:29;18.40;99.90
15821;DHT22;8011;51.650;7.240;2022-09-09T14:21:57;18.40;99.90
15821;DHT22;8011;51.650;7.240;2022-09-09T14:24:22;18.40;99.90
15821;DHT22;8011;51.650;7.240;2022-09-09T14:26:48;18.40;99.90
15821;DHT22;8011;51.650;7.240;2022-09-09T14:29:14;18.40;99.90
15821;DHT22;8011;51.650;7.240;2022-09-09T14:31:40;18.40;99.90
15821;DHT22;8011;51.650;7.240;2022-09-09T14:34:05;18.50;99.90
15821;DHT22;8011;51.650;7.240;2022-09-09T14:36:31;18.50;99.90
15821;DHT22;8011;51.650;7.240;2022-09-09T14:38:57;18.50;99.90
15821;DHT22;8011;51.650;7.240;2022-09-09T14:41:23;18.60;99.90
15821;DHT22;8011;51.650;7.240;2022-09-09T14:43:50;18.60;99.90
15821;DHT22;8011;51.650;7.240;2022-09-09T14:46:20;18.60;99.90
15821;DHT22;8011;51.650;7.240;2022-09-09T14:48:47;18.70;99.90
15821;DHT22;8011;51.650;7.240;2022-09-09T14:51:15;18.70;99.90
15821;DHT22;8011;51.650;7.240;2022-09-09T14:53:41;18.80;99.90
15821;DHT22;8011;51.650;7.240;2022-09-09T14:56:11;18.80;99.90
15821;DHT22;8011;51.650;7.240;2022-09-09T14:58:43;18.80;99.90
15821;DHT22;8011;51.650;7.240;2022-09-09T15:01:12;18.80;99.90
15821;DHT22;8011;51.650;7.240;2022-09-09T15:03:42;18.80;99.90
15821;DHT22;8011;51.650;7.240;2022-09-09T15:06:11;18.80;99.90
15821;DHT22;8011;51.650;7.240;2022-09-09T15:08:39;18.80;99.90
15821;DHT22;8011;51.650;7.240;2022-09-09T15:11:06;18.80;99.90
15821;DHT22;8011;51.650;7.240;2022-09-09T15:13:36;18.80;99.90
15821;DHT22;8011;51.650;7.240;2022-09-09T15:16:13;18.80;99.90
15821;DHT22;8011;51.650;7.240;2022-09-09T15:18:40;18.80;99.90
15821;DHT22;8011;51.650;7.240;2022-09-09T15:21:09;18.70;99.90
15821;DHT22;8011;51.650;7.240;2022-09-09T15:23:36;18.70;99.90
15821;DHT22;8011;51.650;7.240;2022-09-09T15:26:02;18.70;99.90
15821;DHT22;8011;51.650;7.240;2022-09-09T15:28:28;18.70;99.90
15821;DHT22;8011;51.650;7.240;2022-09-09T15:30:54;18.70;99.90
15821;DHT22;8011;51.650;7.240;2022-09-09T15:33:21;18.70;99.90
15821;DHT22;8011;51.650;7.240;2022-09-09T15:35:47;18.70;99.90
15821;DHT22;8011;51.650;7.240;2022-09-09T15:38:14;18.50;99.90
15821;DHT22;8011;51.650;7.240;2022-09-09T15:40:42;18.40;99.90
15821;DHT22;8011;51.650;7.240;2022-09-09T15:43:08;18.10;99.90
15821;DHT22;8011;51.650;7.240;2022-09-09T15:45:36;17.90;99.90
15821;DHT22;8011;51.650;7.240;2022-09-09T15:48:02;17.90;99.90
15821;DHT22;8011;51.650;7.240;2022-09-09T15:50:28;17.90;99.90
15821;DHT22;8011;51.650;7.240;2022-09-09T15:52:58;17.90;99.90
15821;DHT22;8011;51.650;7.240;2022-09-09T15:55:24;17.80;99.90
15821;DHT22;8011;51.650;7.240;2022-09-09T15:57:49;17.80;99.90
15821;DHT22;8011;51.650;7.240;2022-09-09T16:00:17;17.80;99.90
15821;DHT22;8011;51.650;7.240;2022-09-09T16:02:43;17.70;99.90
15821;DHT22;8011;51.650;7.240;2022-09-09T16:05:09;17.70;99.90
15821;DHT22;8011;51.650;7.240;2022-09-09T16:07:35;17.60;99.90
15821;DHT22;8011;51.650;7.240;2022-09-09T16:10:02;17.60;99.90
15821;DHT22;8011;51.650;7.240;2022-09-09T16:12:27;17.60;99.90
15821;DHT22;8011;51.650;7.240;2022-09-09T16:14:53;17.60;99.90
15821;DHT22;8011;51.650;7.240;2022-09-09T16:17:19;17.60;99.90
15821;DHT22;8011;51.650;7.240;2022-09-09T16:19:46;17.60;99.90
15821;DHT22;8011;51.650;7.240;2022-09-09T16:22:11;17.70;99.90
15821;DHT22;8011;51.650;7.240;2022-09-09T16:24:37;17.70;99.90
15821;DHT22;8011;51.650;7.240;2022-09-09T16:27:04;17.70;99.90
15821;DHT22;8011;51.650;7.240;2022-09-09T16:29:30;17.70;99.90
15821;DHT22;8011;51.650;7.240;2022-09-09T16:31:55;17.60;99.90
15821;DHT22;8011;51.650;7.240;2022-09-09T16:34:22;17.60;99.90
15821;DHT22;8011;51.650;7.240;2022-09-09T16:36:48;17.60;99.90
15821;DHT22;8011;51.650;7.240;2022-09-09T16:39:15;17.70;99.90
15821;DHT22;8011;51.650;7.240;2022-09-09T16:41:43;17.70;99.90
15821;DHT22;8011;51.650;7.240;2022-09-09T16:44:12;17.70;99.90
15821;DHT22;8011;51.650;7.240;2022-09-09T16:46:40;17.70;99.90
15821;DHT22;8011;51.650;7.240;2022-09-09T16:49:09;17.70;99.90
15821;DHT22;8011;51.650;7.240;2022-09-09T16:51:43;17.80;99.90
15821;DHT22;8011;51.650;7.240;2022-09-09T16:54:10;17.80;99.90
15821;DHT22;8011;51.650;7.240;2022-09-09T16:56:38;17.80;99.90
15821;DHT22;8011;51.650;7.240;2022-09-09T16:59:09;17.70;99.90
15821;DHT22;8011;51.650;7.240;2022-09-09T17:01:38;17.80;99.90
15821;DHT22;8011;51.650;7.240;2022-09-09T17:04:07;17.80;99.90
15821;DHT22;8011;51.650;7.240;2022-09-09T17:06:34;17.80;99.90
15821;DHT22;8011;51.650;7.240;2022-09-09T17:09:02;17.80;99.90
15821;DHT22;8011;51.650;7.240;2022-09-09T17:11:29;17.80;99.90
15821;DHT22;8011;51.650;7.240;2022-09-09T17:13:56;17.80;99.90
15821;DHT22;8011;51.650;7.240;2022-09-09T17:16:24;17.80;99.90
15821;DHT22;8011;51.650;7.240;2022-09-09T17:18:53;17.80;99.90
15821;DHT22;8011;51.650;7.240;2022-09-09T17:21:21;17.70;99.90
15821;DHT22;8011;51.650;7.240;2022-09-09T17:23:49;17.70;99.90
15821;DHT22;8011;51.650;7.240;2022-09-09T17:26:16;17.60;99.90
15821;DHT22;8011;51.650;7.240;2022-09-09T17:28:43;17.50;99.90
15821;DHT22;8011;51.650;7.240;2022-09-09T17:31:10;17.50;99.90
15821;DHT22;8011;51.650;7.240;2022-09-09T17:33:43;17.50;99.90
15821;DHT22;8011;51.650;7.240;2022-09-09T17:38:37;17.40;99.90
15821;DHT22;8011;51.650;7.240;2022-09-09T17:41:12;17.40;99.90
15821;DHT22;8011;51.650;7.240;2022-09-09T17:43:39;17.40;99.90
15821;DHT22;8011;51.650;7.240;2022-09-09T17:46:06;17.40;99.90
15821;DHT22;8011;51.650;7.240;2022-09-09T17:48:32;17.40;99.90
15821;DHT22;8011;51.650;7.240;2022-09-09T17:50:58;17.40;99.90
15821;DHT22;8011;51.650;7.240;2022-09-09T17:53:24;17.30;99.90
15821;DHT22;8011;51.650;7.240;2022-09-09T17:55:51;17.30;99.90
15821;DHT22;8011;51.650;7.240;2022-09-09T17:58:17;17.30;99.90
15821;DHT22;8011;51.650;7.240;2022-09-09T18:00:42;17.20;99.90
15821;DHT22;8011;51.650;7.240;2022-09-09T18:03:08;17.30;99.90
15821;DHT22;8011;51.650;7.240;2022-09-09T18:05:34;17.20;99.90
15821;DHT22;8011;51.650;7.240;2022-09-09T18:08:00;17.20;99.90
15821;DHT22;8011;51.650;7.240;2022-09-09T18:10:25;17.30;99.90
15821;DHT22;8011;51.650;7.240;2022-09-09T18:12:51;17.30;99.90
15821;DHT22;8011;51.650;7.240;2022-09-09T18:15:17;17.20;99.90
15821;DHT22;8011;51.650;7.240;2022-09-09T18:17:43;17.30;99.90
15821;DHT22;8011;51.650;7.240;2022-09-09T18:20:09;17.20;99.90
15821;DHT22;8011;51.650;7.240;2022-09-09T18:22:35;17.30;99.90
15821;DHT22;8011;51.650;7.240;2022-09-09T18:25:01;17.30;99.90
15821;DHT22;8011;51.650;7.240;2022-09-09T18:27:27;17.20;99.90
15821;DHT22;8011;51.650;7.240;2022-09-09T18:29:53;17.20;99.90
15821;DHT22;8011;51.650;7.240;2022-09-09T18:32:19;17.10;99.90
15821;DHT22;8011;51.650;7.240;2022-09-09T18:34:44;17.20;99.90
15821;DHT22;8011;51.650;7.240;2022-09-09T18:37:10;17.20;99.90
15821;DHT22;8011;51.650;7.240;2022-09-09T18:39:36;17.20;99.90
15821;DHT22;8011;51.650;7.240;2022-09-09T18:42:02;17.20;99.90
15821;DHT22;8011;51.650;7.240;2022-09-09T18:44:31;17.20;99.90
15821;DHT22;8011;51.650;7.240;2022-09-09T18:46:58;17.20;99.90
15821;DHT22;8011;51.650;7.240;2022-09-09T18:49:25;17.20;99.90
15821;DHT22;8011;51.650;7.240;2022-09-09T18:51:51;17.20;99.90
15821;DHT22;8011;51.650;7.240;2022-09-09T18:54:20;17.30;99.90
15821;DHT22;8011;51.650;7.240;2022-09-09T18:56:47;17.30;99.90
15821;DHT22;8011;51.650;7.240;2022-09-09T18:59:18;17.40;99.90
15821;DHT22;8011;51.650;7.240;2022-09-09T19:01:46;17.30;99.90
15821;DHT22;8011;51.650;7.240;2022-09-09T19:04:13;17.30;99.90
15821;DHT22;8011;51.650;7.240;2022-09-09T19:06:42;17.30;99.90
15821;DHT22;8011;51.650;7.240;2022-09-09T19:09:10;17.20;99.90
15821;DHT22;8011;51.650;7.240;2022-09-09T19:11:36;17.20;99.90
15821;DHT22;8011;51.650;7.240;2022-09-09T19:14:03;17.20;99.90
15821;DHT22;8011;51.650;7.240;2022-09-09T19:16:31;17.10;99.90
15821;DHT22;8011;51.650;7.240;2022-09-09T19:18:59;17.10;99.90
15821;DHT22;8011;51.650;7.240;2022-09-09T19:21:31;17.20;99.90
15821;DHT22;8011;51.650;7.240;2022-09-09T19:24:02;17.20;99.90
15821;DHT22;8011;51.650;7.240;2022-09-09T19:26:34;17.20;99.90
15821;DHT22;8011;51.650;7.240;2022-09-09T19:29:05;17.10;99.90
15821;DHT22;8011;51.650;7.240;2022-09-09T19:31:31;17.10;99.90
15821;DHT22;8011;51.650;7.240;2022-09-09T19:33:57;17.10;99.90
15821;DHT22;8011;51.650;7.240;2022-09-09T19:36:23;17.10;99.90
15821;DHT22;8011;51.650;7.240;2022-09-09T19:38:49;17.10;99.90
15821;DHT22;8011;51.650;7.240;2022-09-09T19:41:19;17.10;99.90
15821;DHT22;8011;51.650;7.240;2022-09-09T19:43:47;17.10;99.90
15821;DHT22;8011;51.650;7.240;2022-09-09T19:46:14;17.10;99.90
15821;DHT22;8011;51.650;7.240;2022-09-09T19:48:43;17.10;99.90
15821;DHT22;8011;51.650;7.240;2022-09-09T19:51:13;17.00;99.90
15821;DHT22;8011;51.650;7.240;2022-09-09T19:53:44;17.10;99.90
15821;DHT22;8011;51.650;7.240;2022-09-09T19:56:11;17.00;99.90
15821;DHT22;8011;51.650;7.240;2022-09-09T19:58:38;17.10;99.90
15821;DHT22;8011;51.650;7.240;2022-09-09T20:01:19;17.10;99.90
15821;DHT22;8011;51.650;7.240;2022-09-09T20:03:48;17.10;99.90
15821;DHT22;8011;51.650;7.240;2022-09-09T20:06:16;17.10;99.90
15821;DHT22;8011;51.650;7.240;2022-09-09T20:08:44;17.10;99.90
15821;DHT22;8011;51.650;7.240;2022-09-09T20:11:11;17.00;99.90
15821;DHT22;8011;51.650;7.240;2022-09-09T20:13:38;16.90;99.90
15821;DHT22;8011;51.650;7.240;2022-09-09T20:16:07;16.90;99.90
15821;DHT22;8011;51.650;7.240;2022-09-09T20:18:35;16.90;99.90
15821;DHT22;8011;51.650;7.240;2022-09-09T20:21:07;16.90;99.90
15821;DHT22;8011;51.650;7.240;2022-09-09T20:23:35;16.90;99.90